Terminal Aerodrome Forecast
Issued by NWS Cleveland, OH

Home | Current Version | Previous Version | Graphics & Text | Print | Product List | Glossary On
Versions: 1 2 3 4 5 6 7 8 9 10 11 12 13 14 15 16 17 18 19 20 21 22 23 24 25 26 27 28 29 30 31 32
000
FTUS41 KCLE 270500
TAFCLE
TAF
KCLE 270539Z 2706/2812 20008KT 6SM BR SCT008 OVC015
      TEMPO 2708/2712 3SM BR BKN008
     FM271500 24006KT P6SM VCSH SCT015 BKN035
     FM271700 25008KT P6SM VCTS SCT025 BKN035CB
      TEMPO 2721/2801 2SM TSRA BR SCT015 OVC025CB
     FM280100 30008KT 6SM -SHRA VCTS BKN035CB OVC100
     FM280800 33012KT P6SM VCSH BKN025 OVC035=

USA.gov is the U.S. government's official web portal to all federal, state and local government web resources and services.